Gila Bend, Arizona
Current Conditions -  °F | °C
As of 9:35 AM on Monday 24 Nov 2014 (Local Time) from KBXK Reporting Station
Clear Clear  
Wind Chill: 57°   Ceiling: Unl
Heat Index: 57°   Visibility: 10mi
Dew Point:   Wind: 9mph
Humidity: 11%   Direction: 360°N
Pressure: 30.25"   Gusts: NA
Location:  32.95°N, 112.72°W
Report Text: KBXK 241635Z AUTO 36008KT 10SM CLR 14/M16 A3025 RMK AO1
Loading
Personal Weather Stations






























Interactive Weather Map New forecast layout! Learn more

10-Day Weather Forecast

Advertisements
Track Severe Weather on mobile